Startpagina
METAR-TAF:

METAR-TAF

Vliegvelden :

Lusaka, Zambia

Kenneth Kaunda International Airport

breedte: 15-19-51S, lengte: 028-27-09E, hoogte: 1152 m

Actueel weer

Dit bericht is 4 uur en het 12 minuten geleden gemaakt, om 15:00 UTC
Wind 14 kt uit het oostnoordoosten
Temperatuur 33°C
Vochtigheid 17%
Druk 1018 hPa
Zicht: 8000 m
Weinig wolken op 6000 ft

METAR: FLKK 211500Z 07014KT 8000 FEW060 33/05 Q1018

Tijdstip: 21:12 (19:12 UTC)

Verwachting

Dit bericht is 15 uur en het 12 minuten geleden gemaakt, om 04:00 UTC
Verwachting geldig van 21 om 06 UTC tot 22 om 12 UTC
Wind 10 kt uit het oosten
Zicht: 7000 m

TAF: FLKK 210400Z 2106/2212 08010KT 7000 NSC

Waarnemingen en weersverwachtingen van meer dan 4000 vliegvelden (METAR en TAF).

De beschikbare stations zijn de gele en rode punten op de kaart.

Ga met uw muis naar het station om de naam te zien.

Klik dan om waarnemingen en weersverwachtingen te zien.

kaart wijzigen: klik op de groene knoppen met een zwart kruis om in te zoomen, op de groene knop met een streepje om uit te zoomen of op de groene pijlen voor aangrenzende kaarten.


METAR-TAF: